sensor_id;sensor_type;location;lat;lon;timestamp;P1;durP1;ratioP1;P2;durP2;ratioP2
7104;SDS011;3594;42.152;24.714;2023-06-05T00:01:55;3.85;;;2.35;;
7104;SDS011;3594;42.152;24.714;2023-06-05T00:04:20;7.07;;;2.67;;
7104;SDS011;3594;42.152;24.714;2023-06-05T00:06:46;4.13;;;2.40;;
7104;SDS011;3594;42.152;24.714;2023-06-05T00:09:11;4.03;;;2.40;;
7104;SDS011;3594;42.152;24.714;2023-06-05T00:11:38;6.80;;;2.55;;
7104;SDS011;3594;42.152;24.714;2023-06-05T00:14:04;6.97;;;2.20;;
7104;SDS011;3594;42.152;24.714;2023-06-05T00:16:30;2.90;;;2.55;;
7104;SDS011;3594;42.152;24.714;2023-06-05T00:18:56;2.80;;;2.22;;
7104;SDS011;3594;42.152;24.714;2023-06-05T00:21:22;3.05;;;2.00;;
7104;SDS011;3594;42.152;24.714;2023-06-05T00:23:50;7.38;;;2.28;;
7104;SDS011;3594;42.152;24.714;2023-06-05T00:26:15;7.43;;;2.40;;
7104;SDS011;3594;42.152;24.714;2023-06-05T00:28:41;4.03;;;2.20;;
7104;SDS011;3594;42.152;24.714;2023-06-05T00:31:06;6.32;;;2.42;;
7104;SDS011;3594;42.152;24.714;2023-06-05T00:33:31;3.60;;;2.20;;
7104;SDS011;3594;42.152;24.714;2023-06-05T00:35:57;3.55;;;2.30;;
7104;SDS011;3594;42.152;24.714;2023-06-05T00:38:22;6.28;;;2.17;;
7104;SDS011;3594;42.152;24.714;2023-06-05T00:40:48;3.42;;;2.42;;
7104;SDS011;3594;42.152;24.714;2023-06-05T00:43:13;3.03;;;2.22;;
7104;SDS011;3594;42.152;24.714;2023-06-05T00:45:39;3.90;;;2.33;;
7104;SDS011;3594;42.152;24.714;2023-06-05T00:48:04;3.63;;;2.30;;
7104;SDS011;3594;42.152;24.714;2023-06-05T00:50:31;4.50;;;2.78;;
7104;SDS011;3594;42.152;24.714;2023-06-05T00:52:58;6.85;;;2.10;;
7104;SDS011;3594;42.152;24.714;2023-06-05T00:55:26;3.30;;;2.05;;
7104;SDS011;3594;42.152;24.714;2023-06-05T00:57:52;3.83;;;2.33;;
7104;SDS011;3594;42.152;24.714;2023-06-05T01:00:19;4.07;;;2.25;;
7104;SDS011;3594;42.152;24.714;2023-06-05T01:02:44;5.60;;;2.60;;
7104;SDS011;3594;42.152;24.714;2023-06-05T01:05:10;9.02;;;2.10;;
7104;SDS011;3594;42.152;24.714;2023-06-05T01:07:36;2.90;;;2.20;;
7104;SDS011;3594;42.152;24.714;2023-06-05T01:10:08;4.80;;;2.22;;
7104;SDS011;3594;42.152;24.714;2023-06-05T01:15:20;3.47;;;2.30;;
7104;SDS011;3594;42.152;24.714;2023-06-05T01:17:53;6.00;;;1.95;;
7104;SDS011;3594;42.152;24.714;2023-06-05T01:20:23;4.90;;;2.05;;
7104;SDS011;3594;42.152;24.714;2023-06-05T01:22:57;2.65;;;2.30;;
7104;SDS011;3594;42.152;24.714;2023-06-05T01:25:22;6.72;;;2.35;;
7104;SDS011;3594;42.152;24.714;2023-06-05T01:27:51;4.13;;;2.05;;
7104;SDS011;3594;42.152;24.714;2023-06-05T01:30:25;4.00;;;2.10;;
7104;SDS011;3594;42.152;24.714;2023-06-05T01:32:59;5.15;;;2.00;;
7104;SDS011;3594;42.152;24.714;2023-06-05T01:35:31;2.85;;;2.08;;
7104;SDS011;3594;42.152;24.714;2023-06-05T01:37:59;3.42;;;2.33;;
7104;SDS011;3594;42.152;24.714;2023-06-05T01:40:27;3.30;;;2.17;;
7104;SDS011;3594;42.152;24.714;2023-06-05T01:42:55;4.80;;;2.47;;
7104;SDS011;3594;42.152;24.714;2023-06-05T01:45:22;8.40;;;2.90;;
7104;SDS011;3594;42.152;24.714;2023-06-05T01:47:48;4.72;;;2.40;;
7104;SDS011;3594;42.152;24.714;2023-06-05T01:50:15;3.20;;;2.28;;
7104;SDS011;3594;42.152;24.714;2023-06-05T01:52:41;3.50;;;2.28;;
7104;SDS011;3594;42.152;24.714;2023-06-05T01:55:07;5.07;;;2.33;;
7104;SDS011;3594;42.152;24.714;2023-06-05T01:57:39;6.15;;;2.17;;
7104;SDS011;3594;42.152;24.714;2023-06-05T02:00:05;6.15;;;2.40;;
7104;SDS011;3594;42.152;24.714;2023-06-05T02:02:34;5.07;;;2.20;;
7104;SDS011;3594;42.152;24.714;2023-06-05T02:05:00;6.22;;;1.90;;
7104;SDS011;3594;42.152;24.714;2023-06-05T02:07:27;3.58;;;2.30;;
7104;SDS011;3594;42.152;24.714;2023-06-05T02:09:53;5.47;;;2.50;;
7104;SDS011;3594;42.152;24.714;2023-06-05T02:12:18;4.93;;;2.72;;
7104;SDS011;3594;42.152;24.714;2023-06-05T02:14:44;3.30;;;2.25;;
7104;SDS011;3594;42.152;24.714;2023-06-05T02:17:12;5.82;;;2.58;;
7104;SDS011;3594;42.152;24.714;2023-06-05T02:19:41;7.13;;;2.47;;
7104;SDS011;3594;42.152;24.714;2023-06-05T02:22:06;3.55;;;2.40;;
7104;SDS011;3594;42.152;24.714;2023-06-05T02:24:32;3.58;;;2.40;;
7104;SDS011;3594;42.152;24.714;2023-06-05T02:26:58;6.05;;;2.63;;
7104;SDS011;3594;42.152;24.714;2023-06-05T02:29:23;5.68;;;2.72;;
7104;SDS011;3594;42.152;24.714;2023-06-05T02:31:49;6.75;;;2.35;;
7104;SDS011;3594;42.152;24.714;2023-06-05T02:34:14;4.32;;;2.53;;
7104;SDS011;3594;42.152;24.714;2023-06-05T02:36:41;4.07;;;2.72;;
7104;SDS011;3594;42.152;24.714;2023-06-05T02:39:10;5.28;;;2.40;;
7104;SDS011;3594;42.152;24.714;2023-06-05T02:41:36;4.80;;;2.38;;
7104;SDS011;3594;42.152;24.714;2023-06-05T02:44:01;4.97;;;2.22;;
7104;SDS011;3594;42.152;24.714;2023-06-05T02:46:27;2.92;;;2.40;;
7104;SDS011;3594;42.152;24.714;2023-06-05T02:48:52;5.82;;;2.35;;
7104;SDS011;3594;42.152;24.714;2023-06-05T02:51:18;8.80;;;2.45;;
7104;SDS011;3594;42.152;24.714;2023-06-05T02:53:43;4.55;;;2.20;;
7104;SDS011;3594;42.152;24.714;2023-06-05T02:56:09;3.00;;;2.30;;
7104;SDS011;3594;42.152;24.714;2023-06-05T02:58:35;3.63;;;2.13;;
7104;SDS011;3594;42.152;24.714;2023-06-05T03:01:00;3.08;;;2.40;;
7104;SDS011;3594;42.152;24.714;2023-06-05T03:03:30;8.43;;;2.75;;
7104;SDS011;3594;42.152;24.714;2023-06-05T03:05:57;2.88;;;2.25;;
7104;SDS011;3594;42.152;24.714;2023-06-05T03:08:29;4.60;;;2.78;;
7104;SDS011;3594;42.152;24.714;2023-06-05T03:10:59;4.45;;;2.97;;
7104;SDS011;3594;42.152;24.714;2023-06-05T03:13:24;4.35;;;2.50;;
7104;SDS011;3594;42.152;24.714;2023-06-05T03:15:50;3.80;;;2.53;;
7104;SDS011;3594;42.152;24.714;2023-06-05T03:18:19;4.07;;;2.20;;
7104;SDS011;3594;42.152;24.714;2023-06-05T03:20:46;4.50;;;2.83;;
7104;SDS011;3594;42.152;24.714;2023-06-05T03:23:13;4.93;;;2.58;;
7104;SDS011;3594;42.152;24.714;2023-06-05T03:25:38;4.50;;;2.25;;
7104;SDS011;3594;42.152;24.714;2023-06-05T03:28:04;2.60;;;2.15;;
7104;SDS011;3594;42.152;24.714;2023-06-05T03:30:29;3.45;;;2.28;;
7104;SDS011;3594;42.152;24.714;2023-06-05T03:32:54;4.72;;;2.10;;
7104;SDS011;3594;42.152;24.714;2023-06-05T03:35:20;4.65;;;2.25;;
7104;SDS011;3594;42.152;24.714;2023-06-05T03:37:45;7.18;;;2.40;;
7104;SDS011;3594;42.152;24.714;2023-06-05T03:40:11;2.67;;;2.05;;
7104;SDS011;3594;42.152;24.714;2023-06-05T03:42:37;2.55;;;1.90;;
7104;SDS011;3594;42.152;24.714;2023-06-05T03:45:02;5.80;;;2.20;;
7104;SDS011;3594;42.152;24.714;2023-06-05T03:47:28;4.28;;;1.88;;
7104;SDS011;3594;42.152;24.714;2023-06-05T03:49:53;5.22;;;2.10;;
7104;SDS011;3594;42.152;24.714;2023-06-05T03:52:20;3.45;;;1.92;;
7104;SDS011;3594;42.152;24.714;2023-06-05T03:54:49;3.25;;;2.08;;
7104;SDS011;3594;42.152;24.714;2023-06-05T03:57:19;6.22;;;3.35;;
7104;SDS011;3594;42.152;24.714;2023-06-05T03:59:45;6.72;;;2.30;;
7104;SDS011;3594;42.152;24.714;2023-06-05T04:02:12;4.68;;;2.10;;
7104;SDS011;3594;42.152;24.714;2023-06-05T04:04:38;3.28;;;2.30;;
7104;SDS011;3594;42.152;24.714;2023-06-05T04:07:03;4.43;;;2.50;;
7104;SDS011;3594;42.152;24.714;2023-06-05T04:09:30;3.88;;;2.10;;
7104;SDS011;3594;42.152;24.714;2023-06-05T04:11:56;3.35;;;2.15;;
7104;SDS011;3594;42.152;24.714;2023-06-05T04:14:22;4.90;;;1.88;;
7104;SDS011;3594;42.152;24.714;2023-06-05T04:16:48;2.03;;;1.50;;
7104;SDS011;3594;42.152;24.714;2023-06-05T04:19:13;7.07;;;2.10;;
7104;SDS011;3594;42.152;24.714;2023-06-05T04:21:39;2.63;;;1.42;;
7104;SDS011;3594;42.152;24.714;2023-06-05T04:24:06;2.53;;;1.70;;
7104;SDS011;3594;42.152;24.714;2023-06-05T04:26:34;6.47;;;1.90;;
7104;SDS011;3594;42.152;24.714;2023-06-05T04:29:04;3.40;;;2.03;;
7104;SDS011;3594;42.152;24.714;2023-06-05T04:31:40;3.03;;;1.77;;
7104;SDS011;3594;42.152;24.714;2023-06-05T04:34:06;2.45;;;1.90;;
7104;SDS011;3594;42.152;24.714;2023-06-05T04:36:33;4.30;;;2.03;;
7104;SDS011;3594;42.152;24.714;2023-06-05T04:38:59;3.22;;;1.85;;
7104;SDS011;3594;42.152;24.714;2023-06-05T04:41:26;5.07;;;1.88;;
7104;SDS011;3594;42.152;24.714;2023-06-05T04:43:55;3.33;;;2.17;;
7104;SDS011;3594;42.152;24.714;2023-06-05T04:46:22;3.70;;;2.10;;
7104;SDS011;3594;42.152;24.714;2023-06-05T04:48:48;3.00;;;2.35;;
7104;SDS011;3594;42.152;24.714;2023-06-05T04:51:13;5.47;;;2.45;;
7104;SDS011;3594;42.152;24.714;2023-06-05T04:53:39;4.40;;;2.40;;
7104;SDS011;3594;42.152;24.714;2023-06-05T04:56:06;7.13;;;3.10;;
7104;SDS011;3594;42.152;24.714;2023-06-05T04:58:32;4.78;;;2.97;;
7104;SDS011;3594;42.152;24.714;2023-06-05T05:00:58;5.47;;;2.90;;
7104;SDS011;3594;42.152;24.714;2023-06-05T05:03:30;5.68;;;2.30;;
7104;SDS011;3594;42.152;24.714;2023-06-05T05:05:56;3.33;;;2.60;;
7104;SDS011;3594;42.152;24.714;2023-06-05T05:08:21;7.28;;;2.97;;
7104;SDS011;3594;42.152;24.714;2023-06-05T05:10:47;4.57;;;2.83;;
7104;SDS011;3594;42.152;24.714;2023-06-05T05:13:12;4.03;;;2.40;;
7104;SDS011;3594;42.152;24.714;2023-06-05T05:15:37;4.20;;;2.15;;
7104;SDS011;3594;42.152;24.714;2023-06-05T05:18:03;4.15;;;2.10;;
7104;SDS011;3594;42.152;24.714;2023-06-05T05:20:28;3.78;;;2.42;;
7104;SDS011;3594;42.152;24.714;2023-06-05T05:22:54;3.88;;;2.42;;
7104;SDS011;3594;42.152;24.714;2023-06-05T05:25:21;3.97;;;2.58;;
7104;SDS011;3594;42.152;24.714;2023-06-05T05:27:46;4.25;;;2.85;;
7104;SDS011;3594;42.152;24.714;2023-06-05T05:30:12;7.60;;;2.97;;
7104;SDS011;3594;42.152;24.714;2023-06-05T05:32:38;7.50;;;3.10;;
7104;SDS011;3594;42.152;24.714;2023-06-05T05:35:04;5.13;;;2.85;;
7104;SDS011;3594;42.152;24.714;2023-06-05T05:37:30;3.72;;;2.70;;
7104;SDS011;3594;42.152;24.714;2023-06-05T05:39:55;6.38;;;2.88;;
7104;SDS011;3594;42.152;24.714;2023-06-05T05:42:20;4.43;;;3.03;;
7104;SDS011;3594;42.152;24.714;2023-06-05T05:44:46;8.73;;;2.90;;
7104;SDS011;3594;42.152;24.714;2023-06-05T05:47:11;5.25;;;2.83;;
7104;SDS011;3594;42.152;24.714;2023-06-05T05:49:37;4.32;;;3.10;;
7104;SDS011;3594;42.152;24.714;2023-06-05T05:52:02;4.65;;;2.97;;
7104;SDS011;3594;42.152;24.714;2023-06-05T05:54:28;6.20;;;2.88;;
7104;SDS011;3594;42.152;24.714;2023-06-05T05:56:54;4.78;;;3.00;;
7104;SDS011;3594;42.152;24.714;2023-06-05T05:59:20;6.47;;;3.05;;
7104;SDS011;3594;42.152;24.714;2023-06-05T06:01:47;7.25;;;3.20;;
7104;SDS011;3594;42.152;24.714;2023-06-05T06:04:13;4.13;;;2.67;;
7104;SDS011;3594;42.152;24.714;2023-06-05T06:06:41;4.07;;;3.03;;
7104;SDS011;3594;42.152;24.714;2023-06-05T06:09:06;4.00;;;2.67;;
7104;SDS011;3594;42.152;24.714;2023-06-05T06:11:37;7.15;;;3.30;;
7104;SDS011;3594;42.152;24.714;2023-06-05T06:14:03;4.28;;;2.67;;
7104;SDS011;3594;42.152;24.714;2023-06-05T06:16:29;3.53;;;2.58;;
7104;SDS011;3594;42.152;24.714;2023-06-05T06:18:54;5.07;;;2.83;;
7104;SDS011;3594;42.152;24.714;2023-06-05T06:21:20;4.95;;;2.90;;
7104;SDS011;3594;42.152;24.714;2023-06-05T06:23:46;4.68;;;3.10;;
7104;SDS011;3594;42.152;24.714;2023-06-05T06:26:12;5.97;;;3.15;;
7104;SDS011;3594;42.152;24.714;2023-06-05T06:28:39;5.15;;;2.95;;
7104;SDS011;3594;42.152;24.714;2023-06-05T06:31:05;7.20;;;3.75;;
7104;SDS011;3594;42.152;24.714;2023-06-05T06:33:31;9.93;;;3.22;;
7104;SDS011;3594;42.152;24.714;2023-06-05T06:35:56;4.57;;;2.70;;
7104;SDS011;3594;42.152;24.714;2023-06-05T06:38:23;7.13;;;3.88;;
7104;SDS011;3594;42.152;24.714;2023-06-05T06:40:55;8.43;;;3.90;;
7104;SDS011;3594;42.152;24.714;2023-06-05T06:43:20;6.45;;;4.03;;
7104;SDS011;3594;42.152;24.714;2023-06-05T06:45:46;9.65;;;4.35;;
7104;SDS011;3594;42.152;24.714;2023-06-05T06:48:12;7.20;;;4.65;;
7104;SDS011;3594;42.152;24.714;2023-06-05T06:50:37;11.35;;;4.90;;
7104;SDS011;3594;42.152;24.714;2023-06-05T06:53:03;9.00;;;4.70;;
7104;SDS011;3594;42.152;24.714;2023-06-05T06:55:28;10.43;;;5.05;;
7104;SDS011;3594;42.152;24.714;2023-06-05T06:57:54;11.00;;;4.90;;
7104;SDS011;3594;42.152;24.714;2023-06-05T07:00:20;10.52;;;5.38;;
7104;SDS011;3594;42.152;24.714;2023-06-05T07:02:45;10.93;;;5.40;;
7104;SDS011;3594;42.152;24.714;2023-06-05T07:05:11;11.25;;;5.47;;
7104;SDS011;3594;42.152;24.714;2023-06-05T07:07:38;10.52;;;5.57;;
7104;SDS011;3594;42.152;24.714;2023-06-05T07:10:03;9.77;;;4.80;;
7104;SDS011;3594;42.152;24.714;2023-06-05T07:12:29;8.82;;;5.40;;
7104;SDS011;3594;42.152;24.714;2023-06-05T07:14:55;12.82;;;6.25;;
7104;SDS011;3594;42.152;24.714;2023-06-05T07:17:20;12.75;;;5.88;;
7104;SDS011;3594;42.152;24.714;2023-06-05T07:19:46;11.00;;;5.38;;
7104;SDS011;3594;42.152;24.714;2023-06-05T07:22:11;13.02;;;5.35;;
7104;SDS011;3594;42.152;24.714;2023-06-05T07:24:37;12.75;;;6.53;;
7104;SDS011;3594;42.152;24.714;2023-06-05T07:27:03;13.75;;;5.57;;
7104;SDS011;3594;42.152;24.714;2023-06-05T07:29:29;12.98;;;5.38;;
7104;SDS011;3594;42.152;24.714;2023-06-05T07:31:56;13.73;;;5.20;;
7104;SDS011;3594;42.152;24.714;2023-06-05T07:34:23;10.43;;;5.45;;
7104;SDS011;3594;42.152;24.714;2023-06-05T07:36:49;12.75;;;5.60;;
7104;SDS011;3594;42.152;24.714;2023-06-05T07:39:16;13.25;;;5.85;;
7104;SDS011;3594;42.152;24.714;2023-06-05T07:41:42;12.15;;;5.53;;
7104;SDS011;3594;42.152;24.714;2023-06-05T07:44:09;9.35;;;5.00;;
7104;SDS011;3594;42.152;24.714;2023-06-05T07:46:35;14.15;;;6.00;;
7104;SDS011;3594;42.152;24.714;2023-06-05T07:49:01;14.75;;;5.38;;
7104;SDS011;3594;42.152;24.714;2023-06-05T07:51:27;12.73;;;5.78;;
7104;SDS011;3594;42.152;24.714;2023-06-05T07:53:52;9.18;;;5.05;;
7104;SDS011;3594;42.152;24.714;2023-06-05T07:56:18;10.30;;;5.03;;
7104;SDS011;3594;42.152;24.714;2023-06-05T07:58:43;11.95;;;4.95;;
7104;SDS011;3594;42.152;24.714;2023-06-05T08:01:09;10.77;;;5.45;;
7104;SDS011;3594;42.152;24.714;2023-06-05T08:03:35;10.43;;;5.72;;
7104;SDS011;3594;42.152;24.714;2023-06-05T08:06:00;11.57;;;5.55;;
7104;SDS011;3594;42.152;24.714;2023-06-05T08:08:27;10.68;;;5.22;;
7104;SDS011;3594;42.152;24.714;2023-06-05T08:10:52;11.27;;;5.07;;
7104;SDS011;3594;42.152;24.714;2023-06-05T08:13:17;8.60;;;4.90;;
7104;SDS011;3594;42.152;24.714;2023-06-05T08:15:43;10.43;;;5.53;;
7104;SDS011;3594;42.152;24.714;2023-06-05T08:18:08;8.63;;;4.72;;
7104;SDS011;3594;42.152;24.714;2023-06-05T08:20:34;9.75;;;5.35;;
7104;SDS011;3594;42.152;24.714;2023-06-05T08:22:59;8.38;;;5.15;;
7104;SDS011;3594;42.152;24.714;2023-06-05T08:25:26;10.93;;;5.60;;
7104;SDS011;3594;42.152;24.714;2023-06-05T08:27:52;10.45;;;5.65;;
7104;SDS011;3594;42.152;24.714;2023-06-05T08:30:18;10.20;;;5.80;;
7104;SDS011;3594;42.152;24.714;2023-06-05T08:32:44;12.10;;;6.07;;
7104;SDS011;3594;42.152;24.714;2023-06-05T08:35:09;11.88;;;5.85;;
7104;SDS011;3594;42.152;24.714;2023-06-05T08:37:35;11.23;;;5.95;;
7104;SDS011;3594;42.152;24.714;2023-06-05T08:40:02;11.82;;;6.05;;
7104;SDS011;3594;42.152;24.714;2023-06-05T08:42:31;10.50;;;5.60;;
7104;SDS011;3594;42.152;24.714;2023-06-05T08:44:56;9.00;;;5.50;;
7104;SDS011;3594;42.152;24.714;2023-06-05T08:47:22;11.63;;;6.18;;
7104;SDS011;3594;42.152;24.714;2023-06-05T08:49:51;11.73;;;6.35;;
7104;SDS011;3594;42.152;24.714;2023-06-05T08:52:19;10.70;;;5.80;;
7104;SDS011;3594;42.152;24.714;2023-06-05T08:54:47;11.45;;;5.80;;
7104;SDS011;3594;42.152;24.714;2023-06-05T08:57:12;11.57;;;6.20;;
7104;SDS011;3594;42.152;24.714;2023-06-05T08:59:38;12.13;;;6.40;;
7104;SDS011;3594;42.152;24.714;2023-06-05T09:02:05;11.93;;;6.07;;
7104;SDS011;3594;42.152;24.714;2023-06-05T09:04:30;10.70;;;6.22;;
7104;SDS011;3594;42.152;24.714;2023-06-05T09:06:57;10.50;;;6.03;;
7104;SDS011;3594;42.152;24.714;2023-06-05T09:09:23;12.80;;;6.03;;
7104;SDS011;3594;42.152;24.714;2023-06-05T09:12:08;9.65;;;5.43;;
7104;SDS011;3594;42.152;24.714;2023-06-05T09:14:34;9.50;;;5.00;;
7104;SDS011;3594;42.152;24.714;2023-06-05T09:17:01;8.30;;;5.07;;
7104;SDS011;3594;42.152;24.714;2023-06-05T09:19:40;8.07;;;4.85;;
7104;SDS011;3594;42.152;24.714;2023-06-05T09:22:09;10.52;;;5.40;;
7104;SDS011;3594;42.152;24.714;2023-06-05T09:24:35;8.82;;;5.00;;
7104;SDS011;3594;42.152;24.714;2023-06-05T09:32:04;9.10;;;5.05;;
7104;SDS011;3594;42.152;24.714;2023-06-05T09:34:47;7.72;;;4.43;;
7104;SDS011;3594;42.152;24.714;2023-06-05T09:37:31;7.80;;;4.45;;
7104;SDS011;3594;42.152;24.714;2023-06-05T09:39:59;6.88;;;4.30;;
7104;SDS011;3594;42.152;24.714;2023-06-05T09:42:30;6.80;;;4.40;;
7104;SDS011;3594;42.152;24.714;2023-06-05T09:45:00;8.77;;;5.15;;
7104;SDS011;3594;42.152;24.714;2023-06-05T09:47:26;6.35;;;3.70;;
7104;SDS011;3594;42.152;24.714;2023-06-05T09:49:52;6.35;;;3.83;;
7104;SDS011;3594;42.152;24.714;2023-06-05T09:52:18;6.20;;;3.53;;
7104;SDS011;3594;42.152;24.714;2023-06-05T09:54:45;5.25;;;3.70;;
7104;SDS011;3594;42.152;24.714;2023-06-05T09:57:12;6.05;;;3.65;;
7104;SDS011;3594;42.152;24.714;2023-06-05T10:02:10;4.80;;;3.20;;
7104;SDS011;3594;42.152;24.714;2023-06-05T10:04:42;7.22;;;3.40;;
7104;SDS011;3594;42.152;24.714;2023-06-05T10:07:11;4.88;;;3.35;;
7104;SDS011;3594;42.152;24.714;2023-06-05T10:09:37;8.75;;;4.38;;
7104;SDS011;3594;42.152;24.714;2023-06-05T10:12:05;6.00;;;3.67;;
7104;SDS011;3594;42.152;24.714;2023-06-05T10:14:32;5.93;;;3.65;;
7104;SDS011;3594;42.152;24.714;2023-06-05T10:16:59;5.70;;;3.58;;
7104;SDS011;3594;42.152;24.714;2023-06-05T10:19:26;6.03;;;3.60;;
7104;SDS011;3594;42.152;24.714;2023-06-05T10:21:53;5.47;;;3.65;;
7104;SDS011;3594;42.152;24.714;2023-06-05T10:24:19;6.43;;;3.78;;
7104;SDS011;3594;42.152;24.714;2023-06-05T10:32:21;4.70;;;3.67;;
7104;SDS011;3594;42.152;24.714;2023-06-05T10:37:37;6.50;;;3.55;;
7104;SDS011;3594;42.152;24.714;2023-06-05T10:40:04;6.22;;;3.67;;
7104;SDS011;3594;42.152;24.714;2023-06-05T10:42:30;4.82;;;3.30;;
7104;SDS011;3594;42.152;24.714;2023-06-05T10:44:56;6.22;;;3.90;;
7104;SDS011;3594;42.152;24.714;2023-06-05T10:47:55;5.30;;;3.53;;
7104;SDS011;3594;42.152;24.714;2023-06-05T10:52:46;5.68;;;3.63;;
7104;SDS011;3594;42.152;24.714;2023-06-05T10:55:13;6.80;;;3.45;;
7104;SDS011;3594;42.152;24.714;2023-06-05T11:00:28;6.07;;;3.03;;
7104;SDS011;3594;42.152;24.714;2023-06-05T11:02:54;5.22;;;3.60;;
7104;SDS011;3594;42.152;24.714;2023-06-05T11:05:19;3.72;;;2.88;;
7104;SDS011;3594;42.152;24.714;2023-06-05T11:07:45;4.90;;;2.95;;
7104;SDS011;3594;42.152;24.714;2023-06-05T11:10:17;5.25;;;3.35;;
7104;SDS011;3594;42.152;24.714;2023-06-05T11:15:13;4.95;;;3.17;;
7104;SDS011;3594;42.152;24.714;2023-06-05T11:17:43;4.95;;;2.97;;
7104;SDS011;3594;42.152;24.714;2023-06-05T11:27:46;4.57;;;2.80;;
7104;SDS011;3594;42.152;24.714;2023-06-05T11:30:13;5.65;;;3.08;;
7104;SDS011;3594;42.152;24.714;2023-06-05T11:32:40;4.95;;;3.15;;
7104;SDS011;3594;42.152;24.714;2023-06-05T11:35:06;4.40;;;2.58;;
7104;SDS011;3594;42.152;24.714;2023-06-05T11:37:33;4.13;;;2.80;;
7104;SDS011;3594;42.152;24.714;2023-06-05T11:40:02;4.65;;;3.10;;
7104;SDS011;3594;42.152;24.714;2023-06-05T11:42:35;3.95;;;2.97;;
7104;SDS011;3594;42.152;24.714;2023-06-05T11:45:01;4.57;;;2.85;;
7104;SDS011;3594;42.152;24.714;2023-06-05T11:47:27;4.72;;;3.15;;
7104;SDS011;3594;42.152;24.714;2023-06-05T11:50:16;4.28;;;2.80;;
7104;SDS011;3594;42.152;24.714;2023-06-05T11:52:41;5.22;;;2.90;;
7104;SDS011;3594;42.152;24.714;2023-06-05T11:55:25;4.13;;;2.70;;
7104;SDS011;3594;42.152;24.714;2023-06-05T11:58:08;5.05;;;3.25;;
7104;SDS011;3594;42.152;24.714;2023-06-05T12:00:34;4.63;;;3.20;;
7104;SDS011;3594;42.152;24.714;2023-06-05T12:02:59;6.45;;;3.80;;
7104;SDS011;3594;42.152;24.714;2023-06-05T12:05:24;5.18;;;3.50;;
7104;SDS011;3594;42.152;24.714;2023-06-05T12:07:50;5.55;;;4.00;;
7104;SDS011;3594;42.152;24.714;2023-06-05T12:10:15;7.07;;;3.88;;
7104;SDS011;3594;42.152;24.714;2023-06-05T12:12:50;7.43;;;3.85;;
7104;SDS011;3594;42.152;24.714;2023-06-05T12:15:17;4.63;;;3.38;;
7104;SDS011;3594;42.152;24.714;2023-06-05T12:17:50;6.10;;;3.65;;
7104;SDS011;3594;42.152;24.714;2023-06-05T12:20:19;5.50;;;3.78;;
7104;SDS011;3594;42.152;24.714;2023-06-05T12:22:46;5.28;;;3.72;;
7104;SDS011;3594;42.152;24.714;2023-06-05T12:25:18;5.30;;;3.20;;
7104;SDS011;3594;42.152;24.714;2023-06-05T12:27:43;4.28;;;2.75;;
7104;SDS011;3594;42.152;24.714;2023-06-05T12:30:10;3.95;;;2.75;;
7104;SDS011;3594;42.152;24.714;2023-06-05T12:32:37;3.50;;;2.80;;
7104;SDS011;3594;42.152;24.714;2023-06-05T12:35:04;3.90;;;2.70;;
7104;SDS011;3594;42.152;24.714;2023-06-05T12:37:34;4.03;;;2.47;;
7104;SDS011;3594;42.152;24.714;2023-06-05T12:40:03;3.85;;;2.38;;
7104;SDS011;3594;42.152;24.714;2023-06-05T12:42:35;5.75;;;2.53;;
7104;SDS011;3594;42.152;24.714;2023-06-05T12:45:01;2.92;;;2.30;;
7104;SDS011;3594;42.152;24.714;2023-06-05T12:47:27;4.53;;;2.80;;
7104;SDS011;3594;42.152;24.714;2023-06-05T12:49:53;5.38;;;2.95;;
7104;SDS011;3594;42.152;24.714;2023-06-05T12:52:18;4.13;;;2.70;;
7104;SDS011;3594;42.152;24.714;2023-06-05T12:54:44;3.33;;;2.58;;
7104;SDS011;3594;42.152;24.714;2023-06-05T12:57:09;4.50;;;2.67;;
7104;SDS011;3594;42.152;24.714;2023-06-05T12:59:35;4.75;;;2.60;;
7104;SDS011;3594;42.152;24.714;2023-06-05T13:02:01;3.53;;;2.35;;
7104;SDS011;3594;42.152;24.714;2023-06-05T13:04:26;3.15;;;2.30;;
7104;SDS011;3594;42.152;24.714;2023-06-05T13:06:51;2.45;;;2.25;;
7104;SDS011;3594;42.152;24.714;2023-06-05T13:09:18;3.70;;;2.42;;
7104;SDS011;3594;42.152;24.714;2023-06-05T13:11:44;3.70;;;2.28;;
7104;SDS011;3594;42.152;24.714;2023-06-05T13:14:10;3.75;;;2.47;;
7104;SDS011;3594;42.152;24.714;2023-06-05T13:16:35;3.60;;;2.30;;
7104;SDS011;3594;42.152;24.714;2023-06-05T13:19:01;4.35;;;2.47;;
7104;SDS011;3594;42.152;24.714;2023-06-05T13:21:26;3.20;;;2.40;;
7104;SDS011;3594;42.152;24.714;2023-06-05T13:23:52;4.72;;;2.40;;
7104;SDS011;3594;42.152;24.714;2023-06-05T13:26:17;3.90;;;2.30;;
7104;SDS011;3594;42.152;24.714;2023-06-05T13:28:43;5.68;;;2.20;;
7104;SDS011;3594;42.152;24.714;2023-06-05T13:31:10;3.30;;;2.60;;
7104;SDS011;3594;42.152;24.714;2023-06-05T13:33:36;3.83;;;2.30;;
7104;SDS011;3594;42.152;24.714;2023-06-05T13:36:01;3.30;;;2.13;;
7104;SDS011;3594;42.152;24.714;2023-06-05T13:38:27;3.35;;;2.28;;
7104;SDS011;3594;42.152;24.714;2023-06-05T13:40:52;3.08;;;2.30;;
7104;SDS011;3594;42.152;24.714;2023-06-05T13:43:18;5.22;;;2.53;;
7104;SDS011;3594;42.152;24.714;2023-06-05T13:45:44;3.28;;;2.28;;
7104;SDS011;3594;42.152;24.714;2023-06-05T13:48:10;3.80;;;2.20;;
7104;SDS011;3594;42.152;24.714;2023-06-05T13:50:35;3.88;;;2.53;;
7104;SDS011;3594;42.152;24.714;2023-06-05T13:53:01;3.58;;;2.63;;
7104;SDS011;3594;42.152;24.714;2023-06-05T13:55:26;3.15;;;2.30;;
7104;SDS011;3594;42.152;24.714;2023-06-05T13:57:52;4.38;;;2.40;;
7104;SDS011;3594;42.152;24.714;2023-06-05T14:00:17;5.18;;;2.28;;
7104;SDS011;3594;42.152;24.714;2023-06-05T14:02:43;6.00;;;2.50;;
7104;SDS011;3594;42.152;24.714;2023-06-05T14:05:08;3.47;;;2.40;;
7104;SDS011;3594;42.152;24.714;2023-06-05T14:07:35;3.38;;;2.40;;
7104;SDS011;3594;42.152;24.714;2023-06-05T14:10:01;4.18;;;2.55;;
7104;SDS011;3594;42.152;24.714;2023-06-05T14:12:26;3.53;;;2.47;;
7104;SDS011;3594;42.152;24.714;2023-06-05T14:14:51;3.60;;;2.47;;
7104;SDS011;3594;42.152;24.714;2023-06-05T14:17:17;3.80;;;2.45;;
7104;SDS011;3594;42.152;24.714;2023-06-05T14:19:42;4.90;;;2.70;;
7104;SDS011;3594;42.152;24.714;2023-06-05T14:22:08;6.70;;;2.60;;
7104;SDS011;3594;42.152;24.714;2023-06-05T14:24:34;4.03;;;2.65;;
7104;SDS011;3594;42.152;24.714;2023-06-05T14:26:59;3.42;;;2.20;;
7104;SDS011;3594;42.152;24.714;2023-06-05T14:29:25;3.95;;;2.53;;
7104;SDS011;3594;42.152;24.714;2023-06-05T14:31:50;3.83;;;2.20;;
7104;SDS011;3594;42.152;24.714;2023-06-05T14:34:16;3.17;;;2.10;;
7104;SDS011;3594;42.152;24.714;2023-06-05T14:36:41;4.07;;;2.50;;
7104;SDS011;3594;42.152;24.714;2023-06-05T14:39:14;5.38;;;2.30;;
7104;SDS011;3594;42.152;24.714;2023-06-05T14:41:42;3.08;;;2.30;;
7104;SDS011;3594;42.152;24.714;2023-06-05T14:44:07;2.80;;;1.80;;
7104;SDS011;3594;42.152;24.714;2023-06-05T14:46:33;5.45;;;2.38;;
7104;SDS011;3594;42.152;24.714;2023-06-05T14:48:58;3.83;;;2.28;;
7104;SDS011;3594;42.152;24.714;2023-06-05T14:51:23;3.35;;;2.33;;
7104;SDS011;3594;42.152;24.714;2023-06-05T14:53:49;4.18;;;2.15;;
7104;SDS011;3594;42.152;24.714;2023-06-05T14:56:14;3.28;;;2.20;;
7104;SDS011;3594;42.152;24.714;2023-06-05T14:58:39;2.92;;;1.80;;
7104;SDS011;3594;42.152;24.714;2023-06-05T15:01:05;5.95;;;2.20;;
7104;SDS011;3594;42.152;24.714;2023-06-05T15:03:30;2.47;;;2.00;;
7104;SDS011;3594;42.152;24.714;2023-06-05T15:05:56;2.83;;;2.03;;
7104;SDS011;3594;42.152;24.714;2023-06-05T15:08:21;2.65;;;2.00;;
7104;SDS011;3594;42.152;24.714;2023-06-05T15:10:47;3.38;;;2.42;;
7104;SDS011;3594;42.152;24.714;2023-06-05T15:13:12;4.63;;;2.28;;
7104;SDS011;3594;42.152;24.714;2023-06-05T15:15:37;3.33;;;2.20;;
7104;SDS011;3594;42.152;24.714;2023-06-05T15:18:03;3.40;;;2.35;;
7104;SDS011;3594;42.152;24.714;2023-06-05T15:20:28;3.08;;;2.50;;
7104;SDS011;3594;42.152;24.714;2023-06-05T15:22:55;3.97;;;2.22;;
7104;SDS011;3594;42.152;24.714;2023-06-05T15:25:20;3.65;;;2.40;;
7104;SDS011;3594;42.152;24.714;2023-06-05T15:27:48;2.70;;;2.20;;
7104;SDS011;3594;42.152;24.714;2023-06-05T15:30:14;3.47;;;2.25;;
7104;SDS011;3594;42.152;24.714;2023-06-05T15:32:39;3.40;;;2.08;;